Terminal Aerodrome Forecast
Issued by NWS Hastings, NE

Home | Current Version | Previous Version | Text Only | Print | Product List | Glossary On
Versions: 1 2 3 4 5 6 7 8 9 10 11 12 13 14 15 16 17 18 19 20 21 22 23 24 25 26 27 28 29 30 31 32 33
308
FTUS43 KGID 030555
TAFGRI
TAF
KGRI 030555Z 0306/0406 VRB05KT P6SM BKN080
     FM031200 VRB06KT P6SM FEW080
     FM031800 30011KT P6SM FEW060
     FM040000 30008KT P6SM SKC=

USA.gov is the U.S. government's official web portal to all federal, state and local government web resources and services.